sensor_id;sensor_type;location;lat;lon;timestamp;P1;durP1;ratioP1;P2;durP2;ratioP2
65658;SDS011;60181;53.258;6.932;2022-07-29T00:03:23;4.40;;;1.90;;
65658;SDS011;60181;53.258;6.932;2022-07-29T00:07:51;4.40;;;1.90;;
65658;SDS011;60181;53.258;6.932;2022-07-29T00:12:20;5.70;;;1.90;;
65658;SDS011;60181;53.258;6.932;2022-07-29T00:16:47;5.70;;;1.90;;
65658;SDS011;60181;53.258;6.932;2022-07-29T00:21:15;6.10;;;1.90;;
65658;SDS011;60181;53.258;6.932;2022-07-29T00:25:43;6.10;;;1.90;;
65658;SDS011;60181;53.258;6.932;2022-07-29T00:30:11;3.50;;;1.60;;
65658;SDS011;60181;53.258;6.932;2022-07-29T00:34:39;3.50;;;1.60;;
65658;SDS011;60181;53.258;6.932;2022-07-29T00:39:07;5.30;;;1.80;;
65658;SDS011;60181;53.258;6.932;2022-07-29T00:43:35;5.30;;;1.80;;
65658;SDS011;60181;53.258;6.932;2022-07-29T00:48:03;5.30;;;1.80;;
65658;SDS011;60181;53.258;6.932;2022-07-29T00:52:32;7.20;;;1.90;;
65658;SDS011;60181;53.258;6.932;2022-07-29T00:56:59;7.20;;;1.90;;
65658;SDS011;60181;53.258;6.932;2022-07-29T01:01:27;9.60;;;2.30;;
65658;SDS011;60181;53.258;6.932;2022-07-29T01:05:55;9.60;;;2.30;;
65658;SDS011;60181;53.258;6.932;2022-07-29T01:10:23;6.40;;;2.00;;
65658;SDS011;60181;53.258;6.932;2022-07-29T01:14:52;6.40;;;2.00;;
65658;SDS011;60181;53.258;6.932;2022-07-29T01:23:59;8.20;;;2.10;;
65658;SDS011;60181;53.258;6.932;2022-07-29T01:32:43;6.20;;;1.70;;
65658;SDS011;60181;53.258;6.932;2022-07-29T01:37:15;6.20;;;1.70;;
65658;SDS011;60181;53.258;6.932;2022-07-29T01:46:09;3.60;;;1.90;;
65658;SDS011;60181;53.258;6.932;2022-07-29T01:50:50;4.50;;;1.90;;
65658;SDS011;60181;53.258;6.932;2022-07-29T01:55:04;4.50;;;1.90;;
65658;SDS011;60181;53.258;6.932;2022-07-29T01:59:31;5.80;;;1.90;;
65658;SDS011;60181;53.258;6.932;2022-07-29T02:03:59;5.80;;;1.90;;
65658;SDS011;60181;53.258;6.932;2022-07-29T02:08:27;5.80;;;1.90;;
65658;SDS011;60181;53.258;6.932;2022-07-29T02:12:56;6.00;;;1.90;;
65658;SDS011;60181;53.258;6.932;2022-07-29T02:17:25;6.00;;;1.90;;
65658;SDS011;60181;53.258;6.932;2022-07-29T02:21:51;8.20;;;2.00;;
65658;SDS011;60181;53.258;6.932;2022-07-29T02:26:20;8.20;;;2.00;;
65658;SDS011;60181;53.258;6.932;2022-07-29T02:30:47;6.20;;;1.90;;
65658;SDS011;60181;53.258;6.932;2022-07-29T02:35:15;6.20;;;1.90;;
65658;SDS011;60181;53.258;6.932;2022-07-29T02:39:43;9.20;;;1.90;;
65658;SDS011;60181;53.258;6.932;2022-07-29T02:44:12;9.20;;;1.90;;
65658;SDS011;60181;53.258;6.932;2022-07-29T02:48:41;9.20;;;1.90;;
65658;SDS011;60181;53.258;6.932;2022-07-29T02:53:09;7.30;;;1.90;;
65658;SDS011;60181;53.258;6.932;2022-07-29T02:57:36;7.30;;;1.90;;
65658;SDS011;60181;53.258;6.932;2022-07-29T03:02:03;6.20;;;2.10;;
65658;SDS011;60181;53.258;6.932;2022-07-29T03:06:31;6.20;;;2.10;;
65658;SDS011;60181;53.258;6.932;2022-07-29T03:10:59;4.30;;;1.90;;
65658;SDS011;60181;53.258;6.932;2022-07-29T03:15:27;4.30;;;1.90;;
65658;SDS011;60181;53.258;6.932;2022-07-29T03:19:55;4.50;;;1.90;;
65658;SDS011;60181;53.258;6.932;2022-07-29T03:24:30;4.50;;;1.90;;
65658;SDS011;60181;53.258;6.932;2022-07-29T03:28:51;4.50;;;1.90;;
65658;SDS011;60181;53.258;6.932;2022-07-29T03:33:19;5.50;;;2.00;;
65658;SDS011;60181;53.258;6.932;2022-07-29T03:37:47;5.50;;;2.00;;
65658;SDS011;60181;53.258;6.932;2022-07-29T03:42:15;6.10;;;2.00;;
65658;SDS011;60181;53.258;6.932;2022-07-29T03:46:43;6.10;;;2.00;;
65658;SDS011;60181;53.258;6.932;2022-07-29T03:51:11;7.90;;;2.10;;
65658;SDS011;60181;53.258;6.932;2022-07-29T03:55:43;7.90;;;2.10;;
65658;SDS011;60181;53.258;6.932;2022-07-29T04:00:07;7.90;;;2.10;;
65658;SDS011;60181;53.258;6.932;2022-07-29T04:04:35;7.90;;;2.10;;
65658;SDS011;60181;53.258;6.932;2022-07-29T04:09:03;9.60;;;2.40;;
65658;SDS011;60181;53.258;6.932;2022-07-29T04:13:31;9.60;;;2.40;;
65658;SDS011;60181;53.258;6.932;2022-07-29T04:17:59;9.60;;;2.40;;
65658;SDS011;60181;53.258;6.932;2022-07-29T04:22:27;4.60;;;2.10;;
65658;SDS011;60181;53.258;6.932;2022-07-29T04:26:55;4.60;;;2.10;;
65658;SDS011;60181;53.258;6.932;2022-07-29T04:31:23;8.20;;;2.30;;
65658;SDS011;60181;53.258;6.932;2022-07-29T04:35:51;8.20;;;2.30;;
65658;SDS011;60181;53.258;6.932;2022-07-29T04:40:19;39.60;;;3.30;;
65658;SDS011;60181;53.258;6.932;2022-07-29T04:44:47;39.60;;;3.30;;
65658;SDS011;60181;53.258;6.932;2022-07-29T04:49:15;22.80;;;3.30;;
65658;SDS011;60181;53.258;6.932;2022-07-29T04:53:43;22.80;;;3.30;;
65658;SDS011;60181;53.258;6.932;2022-07-29T04:58:11;22.80;;;3.30;;
65658;SDS011;60181;53.258;6.932;2022-07-29T05:02:39;20.60;;;3.00;;
65658;SDS011;60181;53.258;6.932;2022-07-29T05:07:07;20.60;;;3.00;;
65658;SDS011;60181;53.258;6.932;2022-07-29T05:11:35;15.30;;;2.70;;
65658;SDS011;60181;53.258;6.932;2022-07-29T05:16:03;15.30;;;2.70;;
65658;SDS011;60181;53.258;6.932;2022-07-29T05:20:31;12.60;;;2.30;;
65658;SDS011;60181;53.258;6.932;2022-07-29T05:24:59;12.60;;;2.30;;
65658;SDS011;60181;53.258;6.932;2022-07-29T05:29:27;10.20;;;2.10;;
65658;SDS011;60181;53.258;6.932;2022-07-29T05:33:55;10.20;;;2.10;;
65658;SDS011;60181;53.258;6.932;2022-07-29T05:38:23;10.20;;;2.10;;
65658;SDS011;60181;53.258;6.932;2022-07-29T05:42:51;10.10;;;2.30;;
65658;SDS011;60181;53.258;6.932;2022-07-29T05:47:19;10.10;;;2.30;;
65658;SDS011;60181;53.258;6.932;2022-07-29T05:51:47;11.50;;;2.30;;
65658;SDS011;60181;53.258;6.932;2022-07-29T05:56:15;11.50;;;2.30;;
65658;SDS011;60181;53.258;6.932;2022-07-29T06:00:43;7.70;;;1.90;;
65658;SDS011;60181;53.258;6.932;2022-07-29T06:05:11;7.70;;;1.90;;
65658;SDS011;60181;53.258;6.932;2022-07-29T06:09:39;4.60;;;1.70;;
65658;SDS011;60181;53.258;6.932;2022-07-29T06:14:07;4.60;;;1.70;;
65658;SDS011;60181;53.258;6.932;2022-07-29T06:18:35;4.60;;;1.70;;
65658;SDS011;60181;53.258;6.932;2022-07-29T06:23:03;5.90;;;1.80;;
65658;SDS011;60181;53.258;6.932;2022-07-29T06:27:31;5.90;;;1.80;;
65658;SDS011;60181;53.258;6.932;2022-07-29T06:31:59;7.30;;;2.50;;
65658;SDS011;60181;53.258;6.932;2022-07-29T06:36:27;7.30;;;2.50;;
65658;SDS011;60181;53.258;6.932;2022-07-29T06:40:55;10.60;;;4.80;;
65658;SDS011;60181;53.258;6.932;2022-07-29T06:45:23;10.60;;;4.80;;
65658;SDS011;60181;53.258;6.932;2022-07-29T06:49:51;13.90;;;8.00;;
65658;SDS011;60181;53.258;6.932;2022-07-29T06:54:19;13.90;;;8.00;;
65658;SDS011;60181;53.258;6.932;2022-07-29T06:58:47;13.90;;;8.00;;
65658;SDS011;60181;53.258;6.932;2022-07-29T07:03:15;17.70;;;6.00;;
65658;SDS011;60181;53.258;6.932;2022-07-29T07:07:43;17.70;;;6.00;;
65658;SDS011;60181;53.258;6.932;2022-07-29T07:12:11;10.80;;;4.40;;
65658;SDS011;60181;53.258;6.932;2022-07-29T07:16:39;10.80;;;4.40;;
65658;SDS011;60181;53.258;6.932;2022-07-29T07:21:07;14.70;;;3.90;;
65658;SDS011;60181;53.258;6.932;2022-07-29T07:25:35;14.70;;;3.90;;
65658;SDS011;60181;53.258;6.932;2022-07-29T07:30:03;12.20;;;3.80;;
65658;SDS011;60181;53.258;6.932;2022-07-29T07:34:31;12.20;;;3.80;;
65658;SDS011;60181;53.258;6.932;2022-07-29T07:38:59;8.60;;;3.00;;
65658;SDS011;60181;53.258;6.932;2022-07-29T07:43:27;8.60;;;3.00;;
65658;SDS011;60181;53.258;6.932;2022-07-29T07:47:55;8.60;;;3.00;;
65658;SDS011;60181;53.258;6.932;2022-07-29T07:52:23;9.20;;;3.10;;
65658;SDS011;60181;53.258;6.932;2022-07-29T07:56:51;9.20;;;3.10;;
65658;SDS011;60181;53.258;6.932;2022-07-29T08:01:19;7.80;;;3.00;;
65658;SDS011;60181;53.258;6.932;2022-07-29T08:05:46;7.80;;;3.00;;
65658;SDS011;60181;53.258;6.932;2022-07-29T08:10:15;9.70;;;3.40;;
65658;SDS011;60181;53.258;6.932;2022-07-29T08:14:42;9.70;;;3.40;;
65658;SDS011;60181;53.258;6.932;2022-07-29T08:19:11;8.80;;;3.50;;
65658;SDS011;60181;53.258;6.932;2022-07-29T08:23:39;8.80;;;3.50;;
65658;SDS011;60181;53.258;6.932;2022-07-29T08:28:07;8.80;;;3.50;;
65658;SDS011;60181;53.258;6.932;2022-07-29T08:32:34;10.60;;;3.40;;
65658;SDS011;60181;53.258;6.932;2022-07-29T08:37:02;10.60;;;3.40;;
65658;SDS011;60181;53.258;6.932;2022-07-29T08:41:30;8.10;;;3.10;;
65658;SDS011;60181;53.258;6.932;2022-07-29T08:45:59;8.10;;;3.10;;
65658;SDS011;60181;53.258;6.932;2022-07-29T08:50:26;9.80;;;3.00;;
65658;SDS011;60181;53.258;6.932;2022-07-29T08:54:54;9.80;;;3.00;;
65658;SDS011;60181;53.258;6.932;2022-07-29T08:59:23;5.90;;;2.80;;
65658;SDS011;60181;53.258;6.932;2022-07-29T09:03:50;5.90;;;2.80;;
65658;SDS011;60181;53.258;6.932;2022-07-29T09:08:19;5.90;;;2.80;;
65658;SDS011;60181;53.258;6.932;2022-07-29T09:12:46;7.50;;;2.60;;
65658;SDS011;60181;53.258;6.932;2022-07-29T09:17:14;7.50;;;2.60;;
65658;SDS011;60181;53.258;6.932;2022-07-29T09:21:42;4.80;;;2.60;;
65658;SDS011;60181;53.258;6.932;2022-07-29T09:26:10;4.80;;;2.60;;
65658;SDS011;60181;53.258;6.932;2022-07-29T09:30:57;7.20;;;2.70;;
65658;SDS011;60181;53.258;6.932;2022-07-29T09:35:23;7.20;;;2.70;;
65658;SDS011;60181;53.258;6.932;2022-07-29T09:39:38;7.10;;;2.80;;
65658;SDS011;60181;53.258;6.932;2022-07-29T09:44:02;7.10;;;2.80;;
65658;SDS011;60181;53.258;6.932;2022-07-29T09:48:30;7.10;;;2.80;;
65658;SDS011;60181;53.258;6.932;2022-07-29T09:52:58;6.50;;;2.70;;
65658;SDS011;60181;53.258;6.932;2022-07-29T09:57:27;6.50;;;2.70;;
65658;SDS011;60181;53.258;6.932;2022-07-29T10:01:54;7.20;;;2.50;;
65658;SDS011;60181;53.258;6.932;2022-07-29T10:06:22;7.20;;;2.50;;
65658;SDS011;60181;53.258;6.932;2022-07-29T10:10:50;7.70;;;2.70;;
65658;SDS011;60181;53.258;6.932;2022-07-29T10:15:18;7.70;;;2.70;;
65658;SDS011;60181;53.258;6.932;2022-07-29T10:19:46;6.20;;;2.50;;
65658;SDS011;60181;53.258;6.932;2022-07-29T10:24:14;6.20;;;2.50;;
65658;SDS011;60181;53.258;6.932;2022-07-29T10:28:42;6.20;;;2.50;;
65658;SDS011;60181;53.258;6.932;2022-07-29T10:42:19;5.30;;;2.50;;
65658;SDS011;60181;53.258;6.932;2022-07-29T10:46:35;5.30;;;2.50;;
65658;SDS011;60181;53.258;6.932;2022-07-29T10:51:03;4.00;;;2.30;;
65658;SDS011;60181;53.258;6.932;2022-07-29T10:55:34;4.00;;;2.30;;
65658;SDS011;60181;53.258;6.932;2022-07-29T11:22:33;5.80;;;2.30;;
65658;SDS011;60181;53.258;6.932;2022-07-29T11:31:14;7.20;;;2.70;;
65658;SDS011;60181;53.258;6.932;2022-07-29T11:35:42;7.20;;;2.70;;
65658;SDS011;60181;53.258;6.932;2022-07-29T11:40:11;4.40;;;2.70;;
65658;SDS011;60181;53.258;6.932;2022-07-29T11:45:00;4.40;;;2.70;;
65658;SDS011;60181;53.258;6.932;2022-07-29T11:49:06;4.60;;;2.40;;
65658;SDS011;60181;53.258;6.932;2022-07-29T11:53:34;4.60;;;2.40;;
65658;SDS011;60181;53.258;6.932;2022-07-29T11:58:02;4.60;;;2.40;;
65658;SDS011;60181;53.258;6.932;2022-07-29T12:02:40;4.70;;;2.50;;
65658;SDS011;60181;53.258;6.932;2022-07-29T12:06:58;4.70;;;2.50;;
65658;SDS011;60181;53.258;6.932;2022-07-29T12:11:26;5.70;;;2.30;;
65658;SDS011;60181;53.258;6.932;2022-07-29T12:15:55;5.70;;;2.30;;
65658;SDS011;60181;53.258;6.932;2022-07-29T12:20:23;3.90;;;2.40;;
65658;SDS011;60181;53.258;6.932;2022-07-29T12:24:50;3.90;;;2.40;;
65658;SDS011;60181;53.258;6.932;2022-07-29T12:29:18;4.60;;;2.50;;
65658;SDS011;60181;53.258;6.932;2022-07-29T12:33:51;4.60;;;2.50;;
65658;SDS011;60181;53.258;6.932;2022-07-29T12:38:14;4.60;;;2.50;;
65658;SDS011;60181;53.258;6.932;2022-07-29T12:47:10;4.20;;;2.50;;
65658;SDS011;60181;53.258;6.932;2022-07-29T12:51:39;4.10;;;2.30;;
65658;SDS011;60181;53.258;6.932;2022-07-29T12:56:06;4.10;;;2.30;;
65658;SDS011;60181;53.258;6.932;2022-07-29T13:00:34;5.40;;;2.30;;
65658;SDS011;60181;53.258;6.932;2022-07-29T13:05:03;5.40;;;2.30;;
65658;SDS011;60181;53.258;6.932;2022-07-29T13:09:37;6.00;;;2.50;;
65658;SDS011;60181;53.258;6.932;2022-07-29T13:13:58;6.00;;;2.50;;
65658;SDS011;60181;53.258;6.932;2022-07-29T13:18:33;6.00;;;2.50;;
65658;SDS011;60181;53.258;6.932;2022-07-29T13:22:54;4.30;;;2.50;;
65658;SDS011;60181;53.258;6.932;2022-07-29T13:27:23;4.30;;;2.50;;
65658;SDS011;60181;53.258;6.932;2022-07-29T13:31:50;3.60;;;2.30;;
65658;SDS011;60181;53.258;6.932;2022-07-29T13:36:18;3.60;;;2.30;;
65658;SDS011;60181;53.258;6.932;2022-07-29T13:40:46;5.40;;;2.50;;
65658;SDS011;60181;53.258;6.932;2022-07-29T13:45:14;5.40;;;2.50;;
65658;SDS011;60181;53.258;6.932;2022-07-29T13:49:42;5.40;;;2.50;;
65658;SDS011;60181;53.258;6.932;2022-07-29T13:54:10;5.40;;;2.50;;
65658;SDS011;60181;53.258;6.932;2022-07-29T13:58:38;5.40;;;2.50;;
65658;SDS011;60181;53.258;6.932;2022-07-29T14:03:06;4.10;;;2.40;;
65658;SDS011;60181;53.258;6.932;2022-07-29T14:07:34;4.10;;;2.40;;
65658;SDS011;60181;53.258;6.932;2022-07-29T14:12:02;7.50;;;2.70;;
65658;SDS011;60181;53.258;6.932;2022-07-29T14:16:30;7.50;;;2.70;;
65658;SDS011;60181;53.258;6.932;2022-07-29T14:20:58;8.30;;;2.90;;
65658;SDS011;60181;53.258;6.932;2022-07-29T14:25:26;8.30;;;2.90;;
65658;SDS011;60181;53.258;6.932;2022-07-29T14:29:54;6.00;;;3.10;;
65658;SDS011;60181;53.258;6.932;2022-07-29T14:34:22;6.00;;;3.10;;
65658;SDS011;60181;53.258;6.932;2022-07-29T14:38:50;6.00;;;3.10;;
65658;SDS011;60181;53.258;6.932;2022-07-29T14:43:18;8.90;;;3.30;;
65658;SDS011;60181;53.258;6.932;2022-07-29T14:47:46;8.90;;;3.30;;
65658;SDS011;60181;53.258;6.932;2022-07-29T14:52:14;7.90;;;3.20;;
65658;SDS011;60181;53.258;6.932;2022-07-29T14:56:42;7.90;;;3.20;;
65658;SDS011;60181;53.258;6.932;2022-07-29T15:01:10;5.10;;;2.80;;
65658;SDS011;60181;53.258;6.932;2022-07-29T15:05:38;5.10;;;2.80;;
65658;SDS011;60181;53.258;6.932;2022-07-29T15:10:06;6.20;;;2.80;;
65658;SDS011;60181;53.258;6.932;2022-07-29T15:14:34;6.20;;;2.80;;
65658;SDS011;60181;53.258;6.932;2022-07-29T15:19:02;5.80;;;2.80;;
65658;SDS011;60181;53.258;6.932;2022-07-29T15:23:30;5.80;;;2.80;;
65658;SDS011;60181;53.258;6.932;2022-07-29T15:27:58;5.80;;;2.80;;
65658;SDS011;60181;53.258;6.932;2022-07-29T15:32:26;6.60;;;2.90;;
65658;SDS011;60181;53.258;6.932;2022-07-29T15:36:54;6.60;;;2.90;;
65658;SDS011;60181;53.258;6.932;2022-07-29T15:41:22;6.30;;;2.80;;
65658;SDS011;60181;53.258;6.932;2022-07-29T15:45:50;6.30;;;2.80;;
65658;SDS011;60181;53.258;6.932;2022-07-29T15:50:18;5.40;;;2.70;;
65658;SDS011;60181;53.258;6.932;2022-07-29T15:54:46;5.40;;;2.70;;
65658;SDS011;60181;53.258;6.932;2022-07-29T15:59:14;6.70;;;3.10;;
65658;SDS011;60181;53.258;6.932;2022-07-29T16:03:42;6.70;;;3.10;;
65658;SDS011;60181;53.258;6.932;2022-07-29T16:08:10;6.70;;;3.10;;
65658;SDS011;60181;53.258;6.932;2022-07-29T16:12:38;5.10;;;2.90;;
65658;SDS011;60181;53.258;6.932;2022-07-29T16:17:06;5.10;;;2.90;;
65658;SDS011;60181;53.258;6.932;2022-07-29T16:21:34;6.90;;;2.90;;
65658;SDS011;60181;53.258;6.932;2022-07-29T16:26:02;6.90;;;2.90;;
65658;SDS011;60181;53.258;6.932;2022-07-29T16:30:30;5.60;;;2.90;;
65658;SDS011;60181;53.258;6.932;2022-07-29T16:34:58;5.60;;;2.90;;
65658;SDS011;60181;53.258;6.932;2022-07-29T16:39:26;73.10;;;22.30;;
65658;SDS011;60181;53.258;6.932;2022-07-29T16:43:54;73.10;;;22.30;;
65658;SDS011;60181;53.258;6.932;2022-07-29T16:48:22;73.10;;;22.30;;
65658;SDS011;60181;53.258;6.932;2022-07-29T16:52:50;49.00;;;16.40;;
65658;SDS011;60181;53.258;6.932;2022-07-29T16:57:18;49.00;;;16.40;;
65658;SDS011;60181;53.258;6.932;2022-07-29T17:01:46;43.30;;;13.10;;
65658;SDS011;60181;53.258;6.932;2022-07-29T17:06:14;43.30;;;13.10;;
65658;SDS011;60181;53.258;6.932;2022-07-29T17:10:42;39.50;;;11.60;;
65658;SDS011;60181;53.258;6.932;2022-07-29T17:15:10;39.50;;;11.60;;
65658;SDS011;60181;53.258;6.932;2022-07-29T17:19:38;30.20;;;9.60;;
65658;SDS011;60181;53.258;6.932;2022-07-29T17:24:06;30.20;;;9.60;;
65658;SDS011;60181;53.258;6.932;2022-07-29T17:28:34;30.20;;;9.60;;
65658;SDS011;60181;53.258;6.932;2022-07-29T17:33:02;28.90;;;8.30;;
65658;SDS011;60181;53.258;6.932;2022-07-29T17:37:30;28.90;;;8.30;;
65658;SDS011;60181;53.258;6.932;2022-07-29T17:41:58;24.70;;;8.00;;
65658;SDS011;60181;53.258;6.932;2022-07-29T17:46:26;24.70;;;8.00;;
65658;SDS011;60181;53.258;6.932;2022-07-29T17:50:54;19.60;;;7.10;;
65658;SDS011;60181;53.258;6.932;2022-07-29T17:55:22;19.60;;;7.10;;
65658;SDS011;60181;53.258;6.932;2022-07-29T17:59:50;19.70;;;6.20;;
65658;SDS011;60181;53.258;6.932;2022-07-29T18:04:18;19.70;;;6.20;;
65658;SDS011;60181;53.258;6.932;2022-07-29T18:08:46;19.70;;;6.20;;
65658;SDS011;60181;53.258;6.932;2022-07-29T18:13:14;16.30;;;5.60;;
65658;SDS011;60181;53.258;6.932;2022-07-29T18:17:42;16.30;;;5.60;;
65658;SDS011;60181;53.258;6.932;2022-07-29T18:22:10;16.50;;;5.60;;
65658;SDS011;60181;53.258;6.932;2022-07-29T18:26:38;16.50;;;5.60;;
65658;SDS011;60181;53.258;6.932;2022-07-29T18:31:06;14.60;;;5.10;;
65658;SDS011;60181;53.258;6.932;2022-07-29T18:35:34;14.60;;;5.10;;
65658;SDS011;60181;53.258;6.932;2022-07-29T18:40:05;16.40;;;5.20;;
65658;SDS011;60181;53.258;6.932;2022-07-29T18:44:30;16.40;;;5.20;;
65658;SDS011;60181;53.258;6.932;2022-07-29T18:48:58;13.10;;;5.00;;
65658;SDS011;60181;53.258;6.932;2022-07-29T18:53:26;13.10;;;5.00;;
65658;SDS011;60181;53.258;6.932;2022-07-29T18:57:54;13.10;;;5.00;;
65658;SDS011;60181;53.258;6.932;2022-07-29T19:02:22;12.00;;;4.90;;
65658;SDS011;60181;53.258;6.932;2022-07-29T19:06:50;12.00;;;4.90;;
65658;SDS011;60181;53.258;6.932;2022-07-29T19:11:18;13.00;;;4.70;;
65658;SDS011;60181;53.258;6.932;2022-07-29T19:15:46;13.00;;;4.70;;
65658;SDS011;60181;53.258;6.932;2022-07-29T19:20:14;15.30;;;4.80;;
65658;SDS011;60181;53.258;6.932;2022-07-29T19:24:42;15.30;;;4.80;;
65658;SDS011;60181;53.258;6.932;2022-07-29T19:29:10;11.20;;;4.60;;
65658;SDS011;60181;53.258;6.932;2022-07-29T19:33:38;11.20;;;4.60;;
65658;SDS011;60181;53.258;6.932;2022-07-29T19:38:06;11.20;;;4.60;;
65658;SDS011;60181;53.258;6.932;2022-07-29T19:42:34;11.70;;;4.50;;
65658;SDS011;60181;53.258;6.932;2022-07-29T19:47:02;11.70;;;4.50;;
65658;SDS011;60181;53.258;6.932;2022-07-29T19:51:29;13.10;;;4.50;;
65658;SDS011;60181;53.258;6.932;2022-07-29T19:55:57;13.10;;;4.50;;
65658;SDS011;60181;53.258;6.932;2022-07-29T20:00:25;9.90;;;4.20;;
65658;SDS011;60181;53.258;6.932;2022-07-29T20:04:53;9.90;;;4.20;;
65658;SDS011;60181;53.258;6.932;2022-07-29T20:09:21;7.80;;;3.80;;
65658;SDS011;60181;53.258;6.932;2022-07-29T20:13:49;7.80;;;3.80;;
65658;SDS011;60181;53.258;6.932;2022-07-29T20:18:17;7.80;;;3.80;;
65658;SDS011;60181;53.258;6.932;2022-07-29T20:22:45;11.70;;;4.30;;
65658;SDS011;60181;53.258;6.932;2022-07-29T20:27:14;11.70;;;4.30;;
65658;SDS011;60181;53.258;6.932;2022-07-29T20:31:41;10.00;;;4.10;;
65658;SDS011;60181;53.258;6.932;2022-07-29T20:36:09;10.00;;;4.10;;
65658;SDS011;60181;53.258;6.932;2022-07-29T20:40:37;9.90;;;4.40;;
65658;SDS011;60181;53.258;6.932;2022-07-29T20:45:06;9.90;;;4.40;;
65658;SDS011;60181;53.258;6.932;2022-07-29T20:49:33;8.90;;;4.30;;
65658;SDS011;60181;53.258;6.932;2022-07-29T20:54:01;8.90;;;4.30;;
65658;SDS011;60181;53.258;6.932;2022-07-29T20:58:29;8.90;;;4.30;;
65658;SDS011;60181;53.258;6.932;2022-07-29T21:02:57;9.20;;;4.20;;
65658;SDS011;60181;53.258;6.932;2022-07-29T21:07:25;9.20;;;4.20;;
65658;SDS011;60181;53.258;6.932;2022-07-29T21:11:53;8.60;;;4.10;;
65658;SDS011;60181;53.258;6.932;2022-07-29T21:16:21;8.60;;;4.10;;
65658;SDS011;60181;53.258;6.932;2022-07-29T21:20:49;9.70;;;4.20;;
65658;SDS011;60181;53.258;6.932;2022-07-29T21:25:17;9.70;;;4.20;;
65658;SDS011;60181;53.258;6.932;2022-07-29T21:29:45;19.80;;;5.00;;
65658;SDS011;60181;53.258;6.932;2022-07-29T21:34:13;19.80;;;5.00;;
65658;SDS011;60181;53.258;6.932;2022-07-29T21:38:41;19.80;;;5.00;;
65658;SDS011;60181;53.258;6.932;2022-07-29T21:43:09;13.60;;;4.90;;
65658;SDS011;60181;53.258;6.932;2022-07-29T21:47:37;13.60;;;4.90;;
65658;SDS011;60181;53.258;6.932;2022-07-29T21:52:05;13.60;;;4.90;;
65658;SDS011;60181;53.258;6.932;2022-07-29T21:56:33;13.60;;;4.90;;
65658;SDS011;60181;53.258;6.932;2022-07-29T22:01:01;12.20;;;4.70;;
65658;SDS011;60181;53.258;6.932;2022-07-29T22:05:29;12.20;;;4.70;;
65658;SDS011;60181;53.258;6.932;2022-07-29T22:09:57;9.60;;;4.90;;
65658;SDS011;60181;53.258;6.932;2022-07-29T22:14:25;9.60;;;4.90;;
65658;SDS011;60181;53.258;6.932;2022-07-29T22:18:53;9.60;;;4.90;;
65658;SDS011;60181;53.258;6.932;2022-07-29T22:23:21;11.70;;;4.70;;
65658;SDS011;60181;53.258;6.932;2022-07-29T22:27:49;11.70;;;4.70;;
65658;SDS011;60181;53.258;6.932;2022-07-29T22:32:17;11.70;;;4.70;;
65658;SDS011;60181;53.258;6.932;2022-07-29T22:36:45;11.70;;;4.70;;
65658;SDS011;60181;53.258;6.932;2022-07-29T22:41:13;11.10;;;4.90;;
65658;SDS011;60181;53.258;6.932;2022-07-29T22:45:41;11.10;;;4.90;;
65658;SDS011;60181;53.258;6.932;2022-07-29T22:50:09;10.50;;;4.90;;
65658;SDS011;60181;53.258;6.932;2022-07-29T22:54:37;10.50;;;4.90;;
65658;SDS011;60181;53.258;6.932;2022-07-29T22:59:05;10.70;;;4.40;;
65658;SDS011;60181;53.258;6.932;2022-07-29T23:03:33;10.70;;;4.40;;
65658;SDS011;60181;53.258;6.932;2022-07-29T23:08:01;10.70;;;4.40;;
65658;SDS011;60181;53.258;6.932;2022-07-29T23:12:29;9.80;;;4.80;;
65658;SDS011;60181;53.258;6.932;2022-07-29T23:16:57;9.80;;;4.80;;
65658;SDS011;60181;53.258;6.932;2022-07-29T23:21:25;9.80;;;4.80;;
65658;SDS011;60181;53.258;6.932;2022-07-29T23:25:53;9.80;;;4.80;;
65658;SDS011;60181;53.258;6.932;2022-07-29T23:30:21;10.20;;;5.10;;
65658;SDS011;60181;53.258;6.932;2022-07-29T23:34:49;10.20;;;5.10;;
65658;SDS011;60181;53.258;6.932;2022-07-29T23:39:17;11.70;;;4.90;;
65658;SDS011;60181;53.258;6.932;2022-07-29T23:43:47;11.70;;;4.90;;
65658;SDS011;60181;53.258;6.932;2022-07-29T23:48:13;11.70;;;4.90;;
65658;SDS011;60181;53.258;6.932;2022-07-29T23:52:42;12.00;;;5.90;;
65658;SDS011;60181;53.258;6.932;2022-07-29T23:57:09;12.00;;;5.90;;
